sensor_id;sensor_type;location;lat;lon;timestamp;P1;durP1;ratioP1;P2;durP2;ratioP2
69319;SDS011;56467;53.502;49.248;2023-09-12T00:01:38;3.22;;;2.53;;
69319;SDS011;56467;53.502;49.248;2023-09-12T00:04:03;2.95;;;2.35;;
69319;SDS011;56467;53.502;49.248;2023-09-12T00:06:29;3.03;;;2.17;;
69319;SDS011;56467;53.502;49.248;2023-09-12T00:08:55;3.55;;;2.63;;
69319;SDS011;56467;53.502;49.248;2023-09-12T00:11:21;3.00;;;2.30;;
69319;SDS011;56467;53.502;49.248;2023-09-12T00:13:50;3.13;;;2.42;;
69319;SDS011;56467;53.502;49.248;2023-09-12T00:16:16;2.50;;;2.30;;
69319;SDS011;56467;53.502;49.248;2023-09-12T00:18:42;3.00;;;2.40;;
69319;SDS011;56467;53.502;49.248;2023-09-12T00:21:07;3.35;;;2.38;;
69319;SDS011;56467;53.502;49.248;2023-09-12T00:23:33;3.17;;;2.13;;
69319;SDS011;56467;53.502;49.248;2023-09-12T00:25:59;2.50;;;2.00;;
69319;SDS011;56467;53.502;49.248;2023-09-12T00:28:24;3.28;;;2.45;;
69319;SDS011;56467;53.502;49.248;2023-09-12T00:30:51;2.92;;;2.35;;
69319;SDS011;56467;53.502;49.248;2023-09-12T00:33:17;3.00;;;2.28;;
69319;SDS011;56467;53.502;49.248;2023-09-12T00:35:43;2.33;;;2.13;;
69319;SDS011;56467;53.502;49.248;2023-09-12T00:38:18;3.00;;;2.35;;
69319;SDS011;56467;53.502;49.248;2023-09-12T00:40:44;2.97;;;2.13;;
69319;SDS011;56467;53.502;49.248;2023-09-12T00:43:19;2.80;;;2.15;;
69319;SDS011;56467;53.502;49.248;2023-09-12T00:45:44;2.40;;;1.95;;
69319;SDS011;56467;53.502;49.248;2023-09-12T00:48:10;2.97;;;2.28;;
69319;SDS011;56467;53.502;49.248;2023-09-12T00:50:46;2.63;;;2.17;;
69319;SDS011;56467;53.502;49.248;2023-09-12T00:53:14;2.47;;;2.20;;
69319;SDS011;56467;53.502;49.248;2023-09-12T00:58:24;3.03;;;2.22;;
69319;SDS011;56467;53.502;49.248;2023-09-12T01:00:50;2.17;;;1.90;;
69319;SDS011;56467;53.502;49.248;2023-09-12T01:03:25;2.55;;;2.10;;
69319;SDS011;56467;53.502;49.248;2023-09-12T01:05:52;2.40;;;1.98;;
69319;SDS011;56467;53.502;49.248;2023-09-12T01:08:19;2.38;;;1.92;;
69319;SDS011;56467;53.502;49.248;2023-09-12T01:10:45;3.05;;;2.15;;
69319;SDS011;56467;53.502;49.248;2023-09-12T01:13:13;2.42;;;2.17;;
69319;SDS011;56467;53.502;49.248;2023-09-12T01:15:40;3.22;;;2.30;;
69319;SDS011;56467;53.502;49.248;2023-09-12T01:18:06;2.90;;;2.30;;
69319;SDS011;56467;53.502;49.248;2023-09-12T01:20:34;2.50;;;2.20;;
69319;SDS011;56467;53.502;49.248;2023-09-12T01:23:21;2.70;;;2.20;;
69319;SDS011;56467;53.502;49.248;2023-09-12T01:28:49;2.83;;;2.25;;
69319;SDS011;56467;53.502;49.248;2023-09-12T01:31:17;3.13;;;1.98;;
69319;SDS011;56467;53.502;49.248;2023-09-12T01:33:43;3.15;;;2.33;;
69319;SDS011;56467;53.502;49.248;2023-09-12T01:36:09;2.40;;;2.10;;
69319;SDS011;56467;53.502;49.248;2023-09-12T01:38:35;2.58;;;2.10;;
69319;SDS011;56467;53.502;49.248;2023-09-12T01:41:01;2.10;;;1.90;;
69319;SDS011;56467;53.502;49.248;2023-09-12T01:43:27;2.22;;;1.90;;
69319;SDS011;56467;53.502;49.248;2023-09-12T01:45:54;2.17;;;1.95;;
69319;SDS011;56467;53.502;49.248;2023-09-12T01:48:23;3.15;;;2.15;;
69319;SDS011;56467;53.502;49.248;2023-09-12T01:50:59;2.55;;;1.85;;
69319;SDS011;56467;53.502;49.248;2023-09-12T01:53:26;2.55;;;2.10;;
69319;SDS011;56467;53.502;49.248;2023-09-12T01:55:53;2.33;;;2.00;;
69319;SDS011;56467;53.502;49.248;2023-09-12T01:58:20;3.10;;;2.00;;
69319;SDS011;56467;53.502;49.248;2023-09-12T02:00:46;2.42;;;2.10;;
69319;SDS011;56467;53.502;49.248;2023-09-12T02:03:12;2.15;;;1.98;;
69319;SDS011;56467;53.502;49.248;2023-09-12T02:05:37;2.40;;;2.08;;
69319;SDS011;56467;53.502;49.248;2023-09-12T02:08:03;2.63;;;1.95;;
69319;SDS011;56467;53.502;49.248;2023-09-12T02:10:30;2.13;;;1.92;;
69319;SDS011;56467;53.502;49.248;2023-09-12T02:12:56;2.17;;;1.98;;
69319;SDS011;56467;53.502;49.248;2023-09-12T02:15:22;2.75;;;2.08;;
69319;SDS011;56467;53.502;49.248;2023-09-12T02:17:47;3.05;;;1.90;;
69319;SDS011;56467;53.502;49.248;2023-09-12T02:20:15;2.38;;;1.75;;
69319;SDS011;56467;53.502;49.248;2023-09-12T02:22:41;2.20;;;2.00;;
69319;SDS011;56467;53.502;49.248;2023-09-12T02:25:07;2.20;;;2.00;;
69319;SDS011;56467;53.502;49.248;2023-09-12T02:27:33;3.35;;;1.95;;
69319;SDS011;56467;53.502;49.248;2023-09-12T02:29:59;2.33;;;2.00;;
69319;SDS011;56467;53.502;49.248;2023-09-12T02:32:25;2.40;;;1.90;;
69319;SDS011;56467;53.502;49.248;2023-09-12T02:34:50;2.05;;;1.85;;
69319;SDS011;56467;53.502;49.248;2023-09-12T02:37:18;1.95;;;1.80;;
69319;SDS011;56467;53.502;49.248;2023-09-12T02:39:44;2.30;;;1.95;;
69319;SDS011;56467;53.502;49.248;2023-09-12T02:42:09;2.42;;;2.00;;
69319;SDS011;56467;53.502;49.248;2023-09-12T02:44:35;2.78;;;1.90;;
69319;SDS011;56467;53.502;49.248;2023-09-12T02:47:01;2.45;;;2.00;;
69319;SDS011;56467;53.502;49.248;2023-09-12T02:49:28;2.30;;;2.00;;
69319;SDS011;56467;53.502;49.248;2023-09-12T02:51:53;2.42;;;1.88;;
69319;SDS011;56467;53.502;49.248;2023-09-12T02:54:19;2.20;;;2.00;;
69319;SDS011;56467;53.502;49.248;2023-09-12T02:56:45;2.67;;;2.00;;
69319;SDS011;56467;53.502;49.248;2023-09-12T02:59:10;2.40;;;1.98;;
69319;SDS011;56467;53.502;49.248;2023-09-12T03:01:36;2.22;;;1.90;;
69319;SDS011;56467;53.502;49.248;2023-09-12T03:04:01;2.25;;;1.95;;
69319;SDS011;56467;53.502;49.248;2023-09-12T03:06:28;2.45;;;2.00;;
69319;SDS011;56467;53.502;49.248;2023-09-12T03:08:55;2.30;;;2.10;;
69319;SDS011;56467;53.502;49.248;2023-09-12T03:11:20;2.38;;;2.00;;
69319;SDS011;56467;53.502;49.248;2023-09-12T03:13:46;2.70;;;2.00;;
69319;SDS011;56467;53.502;49.248;2023-09-12T03:16:12;2.70;;;2.30;;
69319;SDS011;56467;53.502;49.248;2023-09-12T03:18:38;3.03;;;2.25;;
69319;SDS011;56467;53.502;49.248;2023-09-12T03:21:04;2.13;;;1.90;;
69319;SDS011;56467;53.502;49.248;2023-09-12T03:23:30;2.50;;;1.85;;
69319;SDS011;56467;53.502;49.248;2023-09-12T03:25:59;2.33;;;1.95;;
69319;SDS011;56467;53.502;49.248;2023-09-12T03:28:27;2.28;;;1.90;;
69319;SDS011;56467;53.502;49.248;2023-09-12T03:30:52;2.45;;;2.20;;
69319;SDS011;56467;53.502;49.248;2023-09-12T03:33:32;2.20;;;2.00;;
69319;SDS011;56467;53.502;49.248;2023-09-12T03:35:58;2.97;;;2.13;;
69319;SDS011;56467;53.502;49.248;2023-09-12T03:38:23;2.75;;;2.20;;
69319;SDS011;56467;53.502;49.248;2023-09-12T03:40:49;2.67;;;2.00;;
69319;SDS011;56467;53.502;49.248;2023-09-12T03:43:15;2.78;;;2.10;;
69319;SDS011;56467;53.502;49.248;2023-09-12T03:45:40;4.57;;;2.05;;
69319;SDS011;56467;53.502;49.248;2023-09-12T03:48:06;2.25;;;1.90;;
69319;SDS011;56467;53.502;49.248;2023-09-12T03:50:31;2.65;;;2.20;;
69319;SDS011;56467;53.502;49.248;2023-09-12T03:52:57;1.90;;;1.70;;
69319;SDS011;56467;53.502;49.248;2023-09-12T03:55:23;2.20;;;2.00;;
69319;SDS011;56467;53.502;49.248;2023-09-12T03:57:48;3.65;;;2.10;;
69319;SDS011;56467;53.502;49.248;2023-09-12T04:00:14;2.17;;;2.00;;
69319;SDS011;56467;53.502;49.248;2023-09-12T04:02:40;2.35;;;2.10;;
69319;SDS011;56467;53.502;49.248;2023-09-12T04:05:06;2.35;;;2.05;;
69319;SDS011;56467;53.502;49.248;2023-09-12T04:07:32;2.38;;;2.15;;
69319;SDS011;56467;53.502;49.248;2023-09-12T04:09:58;2.10;;;1.90;;
69319;SDS011;56467;53.502;49.248;2023-09-12T04:12:23;3.20;;;2.00;;
69319;SDS011;56467;53.502;49.248;2023-09-12T04:14:49;2.50;;;2.03;;
69319;SDS011;56467;53.502;49.248;2023-09-12T04:17:16;3.17;;;2.00;;
69319;SDS011;56467;53.502;49.248;2023-09-12T04:19:42;2.55;;;2.10;;
69319;SDS011;56467;53.502;49.248;2023-09-12T04:22:07;2.58;;;2.22;;
69319;SDS011;56467;53.502;49.248;2023-09-12T04:24:33;2.50;;;2.03;;
69319;SDS011;56467;53.502;49.248;2023-09-12T04:26:59;2.38;;;2.03;;
69319;SDS011;56467;53.502;49.248;2023-09-12T04:29:24;2.30;;;2.00;;
69319;SDS011;56467;53.502;49.248;2023-09-12T04:31:50;2.53;;;2.08;;
69319;SDS011;56467;53.502;49.248;2023-09-12T04:34:17;2.80;;;2.00;;
69319;SDS011;56467;53.502;49.248;2023-09-12T04:36:43;3.60;;;2.17;;
69319;SDS011;56467;53.502;49.248;2023-09-12T04:39:09;2.67;;;2.08;;
69319;SDS011;56467;53.502;49.248;2023-09-12T04:41:34;2.42;;;1.80;;
69319;SDS011;56467;53.502;49.248;2023-09-12T04:44:00;2.20;;;2.00;;
69319;SDS011;56467;53.502;49.248;2023-09-12T04:46:27;2.33;;;2.13;;
69319;SDS011;56467;53.502;49.248;2023-09-12T04:48:53;2.30;;;1.92;;
69319;SDS011;56467;53.502;49.248;2023-09-12T04:51:18;2.20;;;2.00;;
69319;SDS011;56467;53.502;49.248;2023-09-12T04:53:44;2.15;;;1.92;;
69319;SDS011;56467;53.502;49.248;2023-09-12T04:56:10;2.63;;;2.17;;
69319;SDS011;56467;53.502;49.248;2023-09-12T04:58:36;2.10;;;1.90;;
69319;SDS011;56467;53.502;49.248;2023-09-12T05:01:02;2.65;;;2.10;;
69319;SDS011;56467;53.502;49.248;2023-09-12T05:03:28;3.08;;;1.90;;
69319;SDS011;56467;53.502;49.248;2023-09-12T05:05:53;2.30;;;2.10;;
69319;SDS011;56467;53.502;49.248;2023-09-12T05:08:19;2.08;;;1.88;;
69319;SDS011;56467;53.502;49.248;2023-09-12T05:10:44;2.53;;;2.15;;
69319;SDS011;56467;53.502;49.248;2023-09-12T05:13:10;2.83;;;1.95;;
69319;SDS011;56467;53.502;49.248;2023-09-12T05:15:36;3.42;;;2.28;;
69319;SDS011;56467;53.502;49.248;2023-09-12T05:18:04;2.17;;;1.98;;
69319;SDS011;56467;53.502;49.248;2023-09-12T05:20:30;2.05;;;1.88;;
69319;SDS011;56467;53.502;49.248;2023-09-12T05:22:56;2.20;;;2.00;;
69319;SDS011;56467;53.502;49.248;2023-09-12T05:25:22;4.35;;;2.20;;
69319;SDS011;56467;53.502;49.248;2023-09-12T05:27:48;2.45;;;2.20;;
69319;SDS011;56467;53.502;49.248;2023-09-12T05:30:13;4.75;;;1.83;;
69319;SDS011;56467;53.502;49.248;2023-09-12T05:32:40;3.30;;;2.00;;
69319;SDS011;56467;53.502;49.248;2023-09-12T05:35:07;2.10;;;1.90;;
69319;SDS011;56467;53.502;49.248;2023-09-12T05:37:32;3.50;;;1.90;;
69319;SDS011;56467;53.502;49.248;2023-09-12T05:39:58;2.35;;;2.03;;
69319;SDS011;56467;53.502;49.248;2023-09-12T05:42:24;2.45;;;2.00;;
69319;SDS011;56467;53.502;49.248;2023-09-12T05:44:50;2.55;;;2.10;;
69319;SDS011;56467;53.502;49.248;2023-09-12T05:47:18;2.38;;;2.00;;
69319;SDS011;56467;53.502;49.248;2023-09-12T05:49:44;2.25;;;1.90;;
69319;SDS011;56467;53.502;49.248;2023-09-12T05:52:10;2.17;;;1.88;;
69319;SDS011;56467;53.502;49.248;2023-09-12T05:54:36;2.35;;;2.00;;
69319;SDS011;56467;53.502;49.248;2023-09-12T05:57:02;2.00;;;1.70;;
69319;SDS011;56467;53.502;49.248;2023-09-12T05:59:28;2.15;;;1.90;;
69319;SDS011;56467;53.502;49.248;2023-09-12T06:01:54;2.63;;;2.10;;
69319;SDS011;56467;53.502;49.248;2023-09-12T06:04:20;2.45;;;2.00;;
69319;SDS011;56467;53.502;49.248;2023-09-12T06:06:47;2.53;;;1.77;;
69319;SDS011;56467;53.502;49.248;2023-09-12T06:09:12;2.35;;;2.08;;
69319;SDS011;56467;53.502;49.248;2023-09-12T06:11:38;2.38;;;2.03;;
69319;SDS011;56467;53.502;49.248;2023-09-12T06:14:04;2.15;;;1.95;;
69319;SDS011;56467;53.502;49.248;2023-09-12T06:16:29;2.45;;;2.00;;
69319;SDS011;56467;53.502;49.248;2023-09-12T06:18:55;2.67;;;1.85;;
69319;SDS011;56467;53.502;49.248;2023-09-12T06:21:21;2.65;;;1.90;;
69319;SDS011;56467;53.502;49.248;2023-09-12T06:23:47;1.85;;;1.70;;
69319;SDS011;56467;53.502;49.248;2023-09-12T06:26:13;2.00;;;1.80;;
69319;SDS011;56467;53.502;49.248;2023-09-12T06:28:39;2.28;;;2.03;;
69319;SDS011;56467;53.502;49.248;2023-09-12T06:31:08;1.83;;;1.67;;
69319;SDS011;56467;53.502;49.248;2023-09-12T06:33:37;3.10;;;1.98;;
69319;SDS011;56467;53.502;49.248;2023-09-12T06:36:03;2.45;;;2.05;;
69319;SDS011;56467;53.502;49.248;2023-09-12T06:38:29;2.28;;;2.05;;
69319;SDS011;56467;53.502;49.248;2023-09-12T06:40:54;2.20;;;2.00;;
69319;SDS011;56467;53.502;49.248;2023-09-12T06:43:21;2.05;;;1.85;;
69319;SDS011;56467;53.502;49.248;2023-09-12T06:45:47;2.05;;;1.85;;
69319;SDS011;56467;53.502;49.248;2023-09-12T06:48:13;2.08;;;1.88;;
69319;SDS011;56467;53.502;49.248;2023-09-12T06:50:38;2.95;;;1.98;;
69319;SDS011;56467;53.502;49.248;2023-09-12T06:53:04;2.25;;;2.03;;
69319;SDS011;56467;53.502;49.248;2023-09-12T06:55:35;2.40;;;2.00;;
69319;SDS011;56467;53.502;49.248;2023-09-12T06:58:00;2.03;;;1.83;;
69319;SDS011;56467;53.502;49.248;2023-09-12T07:00:26;2.05;;;1.85;;
69319;SDS011;56467;53.502;49.248;2023-09-12T07:02:52;1.98;;;1.80;;
69319;SDS011;56467;53.502;49.248;2023-09-12T07:05:17;2.10;;;1.90;;
69319;SDS011;56467;53.502;49.248;2023-09-12T07:07:43;3.10;;;2.08;;
69319;SDS011;56467;53.502;49.248;2023-09-12T07:10:09;2.10;;;1.90;;
69319;SDS011;56467;53.502;49.248;2023-09-12T07:12:34;2.33;;;1.92;;
69319;SDS011;56467;53.502;49.248;2023-09-12T07:15:00;2.30;;;1.67;;
69319;SDS011;56467;53.502;49.248;2023-09-12T07:17:27;2.03;;;1.70;;
69319;SDS011;56467;53.502;49.248;2023-09-12T07:19:53;2.10;;;1.80;;
69319;SDS011;56467;53.502;49.248;2023-09-12T07:22:19;1.70;;;1.60;;
69319;SDS011;56467;53.502;49.248;2023-09-12T07:24:45;2.35;;;1.98;;
69319;SDS011;56467;53.502;49.248;2023-09-12T07:27:10;2.08;;;1.83;;
69319;SDS011;56467;53.502;49.248;2023-09-12T07:29:36;2.25;;;1.85;;
69319;SDS011;56467;53.502;49.248;2023-09-12T07:32:04;2.20;;;2.00;;
69319;SDS011;56467;53.502;49.248;2023-09-12T07:34:32;2.10;;;1.85;;
69319;SDS011;56467;53.502;49.248;2023-09-12T07:36:58;2.10;;;1.80;;
69319;SDS011;56467;53.502;49.248;2023-09-12T07:39:24;2.55;;;1.80;;
69319;SDS011;56467;53.502;49.248;2023-09-12T07:41:49;2.10;;;1.77;;
69319;SDS011;56467;53.502;49.248;2023-09-12T07:44:15;1.80;;;1.70;;
69319;SDS011;56467;53.502;49.248;2023-09-12T07:46:42;1.98;;;1.73;;
69319;SDS011;56467;53.502;49.248;2023-09-12T07:49:08;1.90;;;1.70;;
69319;SDS011;56467;53.502;49.248;2023-09-12T07:51:34;1.85;;;1.60;;
69319;SDS011;56467;53.502;49.248;2023-09-12T07:54:00;1.70;;;1.60;;
69319;SDS011;56467;53.502;49.248;2023-09-12T07:56:27;2.08;;;1.85;;
69319;SDS011;56467;53.502;49.248;2023-09-12T07:58:53;2.08;;;1.88;;
69319;SDS011;56467;53.502;49.248;2023-09-12T08:01:18;1.83;;;1.70;;
69319;SDS011;56467;53.502;49.248;2023-09-12T08:03:44;2.08;;;1.88;;
69319;SDS011;56467;53.502;49.248;2023-09-12T08:06:10;1.92;;;1.83;;
69319;SDS011;56467;53.502;49.248;2023-09-12T08:08:35;1.60;;;1.50;;
69319;SDS011;56467;53.502;49.248;2023-09-12T08:11:01;1.83;;;1.60;;
69319;SDS011;56467;53.502;49.248;2023-09-12T08:13:27;1.65;;;1.55;;
69319;SDS011;56467;53.502;49.248;2023-09-12T08:15:54;2.20;;;1.70;;
69319;SDS011;56467;53.502;49.248;2023-09-12T08:18:20;1.70;;;1.60;;
69319;SDS011;56467;53.502;49.248;2023-09-12T08:20:46;1.70;;;1.60;;
69319;SDS011;56467;53.502;49.248;2023-09-12T08:23:12;1.50;;;1.40;;
69319;SDS011;56467;53.502;49.248;2023-09-12T08:25:39;1.60;;;1.50;;
69319;SDS011;56467;53.502;49.248;2023-09-12T08:28:05;1.65;;;1.48;;
69319;SDS011;56467;53.502;49.248;2023-09-12T08:30:30;3.00;;;1.60;;
69319;SDS011;56467;53.502;49.248;2023-09-12T08:32:58;2.42;;;1.55;;
69319;SDS011;56467;53.502;49.248;2023-09-12T08:35:24;2.38;;;1.60;;
69319;SDS011;56467;53.502;49.248;2023-09-12T08:37:51;3.15;;;1.40;;
69319;SDS011;56467;53.502;49.248;2023-09-12T08:40:17;2.63;;;1.70;;
69319;SDS011;56467;53.502;49.248;2023-09-12T08:42:43;2.95;;;1.70;;
69319;SDS011;56467;53.502;49.248;2023-09-12T08:45:16;2.17;;;1.58;;
69319;SDS011;56467;53.502;49.248;2023-09-12T08:47:50;2.35;;;1.42;;
69319;SDS011;56467;53.502;49.248;2023-09-12T08:50:18;2.58;;;1.60;;
69319;SDS011;56467;53.502;49.248;2023-09-12T08:52:46;3.10;;;1.75;;
69319;SDS011;56467;53.502;49.248;2023-09-12T08:55:20;3.13;;;1.50;;
69319;SDS011;56467;53.502;49.248;2023-09-12T08:57:47;1.98;;;1.70;;
69319;SDS011;56467;53.502;49.248;2023-09-12T09:00:15;2.97;;;1.70;;
69319;SDS011;56467;53.502;49.248;2023-09-12T09:02:41;2.70;;;1.60;;
69319;SDS011;56467;53.502;49.248;2023-09-12T09:05:08;1.85;;;1.60;;
69319;SDS011;56467;53.502;49.248;2023-09-12T09:07:39;2.33;;;1.50;;
69319;SDS011;56467;53.502;49.248;2023-09-12T09:10:07;2.03;;;1.73;;
69319;SDS011;56467;53.502;49.248;2023-09-12T09:12:37;1.98;;;1.60;;
69319;SDS011;56467;53.502;49.248;2023-09-12T09:17:51;3.58;;;1.92;;
69319;SDS011;56467;53.502;49.248;2023-09-12T09:20:25;1.60;;;1.50;;
69319;SDS011;56467;53.502;49.248;2023-09-12T09:23:06;3.13;;;1.65;;
69319;SDS011;56467;53.502;49.248;2023-09-12T09:25:36;4.60;;;1.70;;
69319;SDS011;56467;53.502;49.248;2023-09-12T09:28:05;2.05;;;1.80;;
69319;SDS011;56467;53.502;49.248;2023-09-12T09:30:45;2.95;;;1.60;;
69319;SDS011;56467;53.502;49.248;2023-09-12T09:33:12;2.15;;;1.58;;
69319;SDS011;56467;53.502;49.248;2023-09-12T09:35:42;3.25;;;1.55;;
69319;SDS011;56467;53.502;49.248;2023-09-12T09:38:12;2.95;;;1.70;;
69319;SDS011;56467;53.502;49.248;2023-09-12T09:40:42;4.53;;;1.55;;
69319;SDS011;56467;53.502;49.248;2023-09-12T09:43:08;1.70;;;1.60;;
69319;SDS011;56467;53.502;49.248;2023-09-12T09:45:42;2.35;;;1.70;;
69319;SDS011;56467;53.502;49.248;2023-09-12T09:48:10;3.17;;;1.55;;
69319;SDS011;56467;53.502;49.248;2023-09-12T09:53:08;2.40;;;1.60;;
69319;SDS011;56467;53.502;49.248;2023-09-12T09:55:35;1.75;;;1.40;;
69319;SDS011;56467;53.502;49.248;2023-09-12T09:58:01;3.35;;;1.70;;
69319;SDS011;56467;53.502;49.248;2023-09-12T10:00:28;2.83;;;1.50;;
69319;SDS011;56467;53.502;49.248;2023-09-12T10:02:56;2.65;;;1.70;;
69319;SDS011;56467;53.502;49.248;2023-09-12T10:05:23;2.00;;;1.80;;
69319;SDS011;56467;53.502;49.248;2023-09-12T10:07:50;3.92;;;1.70;;
69319;SDS011;56467;53.502;49.248;2023-09-12T10:10:19;3.58;;;1.83;;
69319;SDS011;56467;53.502;49.248;2023-09-12T10:12:55;3.22;;;1.80;;
69319;SDS011;56467;53.502;49.248;2023-09-12T10:15:22;2.28;;;1.85;;
69319;SDS011;56467;53.502;49.248;2023-09-12T10:17:53;3.10;;;1.70;;
69319;SDS011;56467;53.502;49.248;2023-09-12T10:20:24;2.38;;;1.80;;
69319;SDS011;56467;53.502;49.248;2023-09-12T10:23:07;2.53;;;1.70;;
69319;SDS011;56467;53.502;49.248;2023-09-12T10:25:37;3.03;;;1.80;;
69319;SDS011;56467;53.502;49.248;2023-09-12T10:28:04;1.88;;;1.63;;
69319;SDS011;56467;53.502;49.248;2023-09-12T10:30:31;3.63;;;1.77;;
69319;SDS011;56467;53.502;49.248;2023-09-12T10:32:57;2.40;;;1.60;;
69319;SDS011;56467;53.502;49.248;2023-09-12T10:35:26;3.08;;;2.13;;
69319;SDS011;56467;53.502;49.248;2023-09-12T10:37:52;2.90;;;1.60;;
69319;SDS011;56467;53.502;49.248;2023-09-12T10:40:20;2.67;;;1.80;;
69319;SDS011;56467;53.502;49.248;2023-09-12T10:42:46;2.13;;;1.60;;
69319;SDS011;56467;53.502;49.248;2023-09-12T10:45:13;2.42;;;1.83;;
69319;SDS011;56467;53.502;49.248;2023-09-12T10:47:39;2.30;;;1.50;;
69319;SDS011;56467;53.502;49.248;2023-09-12T10:50:06;1.95;;;1.42;;
69319;SDS011;56467;53.502;49.248;2023-09-12T10:52:33;1.70;;;1.60;;
69319;SDS011;56467;53.502;49.248;2023-09-12T10:55:02;1.95;;;1.60;;
69319;SDS011;56467;53.502;49.248;2023-09-12T10:57:29;2.50;;;1.60;;
69319;SDS011;56467;53.502;49.248;2023-09-12T11:02:33;2.72;;;1.58;;
69319;SDS011;56467;53.502;49.248;2023-09-12T11:05:02;1.98;;;1.55;;
69319;SDS011;56467;53.502;49.248;2023-09-12T11:07:30;2.10;;;1.67;;
69319;SDS011;56467;53.502;49.248;2023-09-12T11:12:41;1.63;;;1.42;;
69319;SDS011;56467;53.502;49.248;2023-09-12T11:15:08;1.95;;;1.70;;
69319;SDS011;56467;53.502;49.248;2023-09-12T11:17:41;2.72;;;2.00;;
69319;SDS011;56467;53.502;49.248;2023-09-12T11:20:11;1.73;;;1.55;;
69319;SDS011;56467;53.502;49.248;2023-09-12T11:22:45;3.88;;;1.90;;
69319;SDS011;56467;53.502;49.248;2023-09-12T11:25:18;1.88;;;1.70;;
69319;SDS011;56467;53.502;49.248;2023-09-12T11:30:22;2.63;;;1.77;;
69319;SDS011;56467;53.502;49.248;2023-09-12T11:32:50;2.15;;;1.77;;
69319;SDS011;56467;53.502;49.248;2023-09-12T11:35:22;2.15;;;1.77;;
69319;SDS011;56467;53.502;49.248;2023-09-12T11:37:49;2.03;;;1.83;;
69319;SDS011;56467;53.502;49.248;2023-09-12T11:42:51;2.05;;;1.83;;
69319;SDS011;56467;53.502;49.248;2023-09-12T11:45:18;2.38;;;1.75;;
69319;SDS011;56467;53.502;49.248;2023-09-12T11:47:45;2.03;;;1.70;;
69319;SDS011;56467;53.502;49.248;2023-09-12T11:50:30;1.80;;;1.70;;
69319;SDS011;56467;53.502;49.248;2023-09-12T11:53:10;1.73;;;1.57;;
69319;SDS011;56467;53.502;49.248;2023-09-12T11:58:07;2.38;;;1.70;;
69319;SDS011;56467;53.502;49.248;2023-09-12T12:00:33;2.25;;;1.60;;
69319;SDS011;56467;53.502;49.248;2023-09-12T12:02:58;1.83;;;1.60;;
69319;SDS011;56467;53.502;49.248;2023-09-12T12:05:24;2.00;;;1.80;;
69319;SDS011;56467;53.502;49.248;2023-09-12T12:07:50;1.88;;;1.63;;
69319;SDS011;56467;53.502;49.248;2023-09-12T12:10:16;2.13;;;1.70;;
69319;SDS011;56467;53.502;49.248;2023-09-12T12:12:46;2.25;;;1.80;;
69319;SDS011;56467;53.502;49.248;2023-09-12T12:15:12;2.05;;;1.65;;
69319;SDS011;56467;53.502;49.248;2023-09-12T12:17:40;1.55;;;1.45;;
69319;SDS011;56467;53.502;49.248;2023-09-12T12:20:09;2.05;;;1.70;;
69319;SDS011;56467;53.502;49.248;2023-09-12T12:22:39;1.83;;;1.60;;
69319;SDS011;56467;53.502;49.248;2023-09-12T12:25:09;1.70;;;1.60;;
69319;SDS011;56467;53.502;49.248;2023-09-12T12:27:38;3.45;;;1.80;;
69319;SDS011;56467;53.502;49.248;2023-09-12T12:30:06;1.98;;;1.65;;
69319;SDS011;56467;53.502;49.248;2023-09-12T12:32:33;2.60;;;1.85;;
69319;SDS011;56467;53.502;49.248;2023-09-12T12:34:59;2.08;;;1.70;;
69319;SDS011;56467;53.502;49.248;2023-09-12T12:37:28;2.38;;;1.70;;
69319;SDS011;56467;53.502;49.248;2023-09-12T12:39:58;1.70;;;1.60;;
69319;SDS011;56467;53.502;49.248;2023-09-12T12:42:24;1.92;;;1.73;;
69319;SDS011;56467;53.502;49.248;2023-09-12T12:44:54;2.33;;;1.80;;
69319;SDS011;56467;53.502;49.248;2023-09-12T12:47:20;2.13;;;1.80;;
69319;SDS011;56467;53.502;49.248;2023-09-12T12:49:50;2.88;;;1.60;;
69319;SDS011;56467;53.502;49.248;2023-09-12T12:52:21;2.40;;;1.80;;
69319;SDS011;56467;53.502;49.248;2023-09-12T12:54:49;2.08;;;1.90;;
69319;SDS011;56467;53.502;49.248;2023-09-12T12:57:18;1.88;;;1.60;;
69319;SDS011;56467;53.502;49.248;2023-09-12T12:59:48;3.25;;;1.65;;
69319;SDS011;56467;53.502;49.248;2023-09-12T13:02:14;4.25;;;1.90;;
69319;SDS011;56467;53.502;49.248;2023-09-12T13:04:40;3.20;;;1.60;;
69319;SDS011;56467;53.502;49.248;2023-09-12T13:07:05;2.92;;;1.70;;
69319;SDS011;56467;53.502;49.248;2023-09-12T13:09:32;2.22;;;1.58;;
69319;SDS011;56467;53.502;49.248;2023-09-12T13:11:58;2.40;;;1.90;;
69319;SDS011;56467;53.502;49.248;2023-09-12T13:14:24;2.85;;;1.80;;
69319;SDS011;56467;53.502;49.248;2023-09-12T13:16:56;2.20;;;1.60;;
69319;SDS011;56467;53.502;49.248;2023-09-12T13:19:23;3.08;;;1.63;;
69319;SDS011;56467;53.502;49.248;2023-09-12T13:21:49;1.80;;;1.70;;
69319;SDS011;56467;53.502;49.248;2023-09-12T13:24:15;1.90;;;1.70;;
69319;SDS011;56467;53.502;49.248;2023-09-12T13:26:40;2.63;;;1.70;;
69319;SDS011;56467;53.502;49.248;2023-09-12T13:29:06;4.85;;;2.10;;
69319;SDS011;56467;53.502;49.248;2023-09-12T13:31:32;3.47;;;2.03;;
69319;SDS011;56467;53.502;49.248;2023-09-12T13:33:58;3.70;;;2.30;;
69319;SDS011;56467;53.502;49.248;2023-09-12T13:36:23;3.88;;;2.08;;
69319;SDS011;56467;53.502;49.248;2023-09-12T13:38:49;5.30;;;2.92;;
69319;SDS011;56467;53.502;49.248;2023-09-12T13:41:16;4.93;;;3.08;;
69319;SDS011;56467;53.502;49.248;2023-09-12T13:43:43;4.57;;;2.83;;
69319;SDS011;56467;53.502;49.248;2023-09-12T13:46:12;4.95;;;3.20;;
69319;SDS011;56467;53.502;49.248;2023-09-12T13:48:38;4.28;;;3.00;;
69319;SDS011;56467;53.502;49.248;2023-09-12T13:51:04;4.78;;;2.92;;
69319;SDS011;56467;53.502;49.248;2023-09-12T13:53:31;5.80;;;2.80;;
69319;SDS011;56467;53.502;49.248;2023-09-12T13:55:56;6.53;;;3.08;;
69319;SDS011;56467;53.502;49.248;2023-09-12T13:58:23;4.03;;;2.90;;
69319;SDS011;56467;53.502;49.248;2023-09-12T14:00:49;4.78;;;2.97;;
69319;SDS011;56467;53.502;49.248;2023-09-12T14:03:14;5.85;;;3.40;;
69319;SDS011;56467;53.502;49.248;2023-09-12T14:05:40;4.97;;;2.83;;
69319;SDS011;56467;53.502;49.248;2023-09-12T14:08:06;5.68;;;3.00;;
69319;SDS011;56467;53.502;49.248;2023-09-12T14:10:32;5.68;;;3.22;;
69319;SDS011;56467;53.502;49.248;2023-09-12T14:12:57;4.85;;;3.10;;
69319;SDS011;56467;53.502;49.248;2023-09-12T14:15:23;4.20;;;2.90;;
69319;SDS011;56467;53.502;49.248;2023-09-12T14:17:49;4.72;;;3.08;;
69319;SDS011;56467;53.502;49.248;2023-09-12T14:20:14;3.78;;;2.78;;
69319;SDS011;56467;53.502;49.248;2023-09-12T14:22:40;4.68;;;3.13;;
69319;SDS011;56467;53.502;49.248;2023-09-12T14:25:07;5.20;;;3.30;;
69319;SDS011;56467;53.502;49.248;2023-09-12T14:27:33;6.07;;;3.08;;
69319;SDS011;56467;53.502;49.248;2023-09-12T14:29:59;4.53;;;2.90;;
69319;SDS011;56467;53.502;49.248;2023-09-12T14:32:25;6.53;;;3.03;;
69319;SDS011;56467;53.502;49.248;2023-09-12T14:34:51;8.85;;;3.40;;
69319;SDS011;56467;53.502;49.248;2023-09-12T14:37:17;4.35;;;3.10;;
69319;SDS011;56467;53.502;49.248;2023-09-12T14:39:43;4.53;;;3.10;;
69319;SDS011;56467;53.502;49.248;2023-09-12T14:42:09;4.68;;;3.25;;
69319;SDS011;56467;53.502;49.248;2023-09-12T14:44:37;4.45;;;3.20;;
69319;SDS011;56467;53.502;49.248;2023-09-12T14:47:02;5.82;;;3.00;;
69319;SDS011;56467;53.502;49.248;2023-09-12T14:49:28;4.22;;;2.83;;
69319;SDS011;56467;53.502;49.248;2023-09-12T14:51:54;5.45;;;3.38;;
69319;SDS011;56467;53.502;49.248;2023-09-12T14:54:19;5.07;;;3.13;;
69319;SDS011;56467;53.502;49.248;2023-09-12T14:56:47;5.18;;;3.33;;